Time;durP1;ratioP1;P1;durP2;ratioP2;P2;SDS_P1;SDS_P2;PMS_P1;PMS_P2;Temp;Humidity;BMP_temperature;BMP_pressure;BME280_temperature;BME280_humidity;BME280_pressure;Samples;Min_cycle;Max_cycle;Signal;HPM_P1;HPM_P2
2023/04/01 00:03:30;;;;;;;0.13;0.00;;;14.00;99.90;;;13.82;59.46;99035.03;4933777;28;97992;-39
2023/04/01 00:05:58;;;;;;;2.20;0.40;;;13.90;99.90;;;13.77;59.59;99031.91;4934977;28;98576;-39
2023/04/01 00:08:26;;;;;;;1.13;0.17;;;13.80;99.90;;;13.86;59.16;99040.94;4944202;28;98512;-39
2023/04/01 00:10:53;;;;;;;0.00;0.00;;;13.90;99.90;;;13.78;59.07;99032.75;4935400;28;98783;-46
2023/04/01 00:13:20;;;;;;;0.20;0.10;;;13.80;99.90;;;13.88;58.32;99029.25;4926818;28;97919;-39
2023/04/01 00:15:46;;;;;;;0.10;0.00;;;13.90;99.90;;;13.82;58.90;99034.19;4933137;28;97520;-39
2023/04/01 00:18:12;;;;;;;2.83;0.53;;;13.90;99.90;;;13.78;58.95;99028.28;4952472;28;98470;-39
2023/04/01 00:20:38;;;;;;;0.27;0.20;;;13.80;99.90;;;13.85;58.91;99033.97;4953131;28;98064;-40
2023/04/01 00:23:05;;;;;;;0.30;0.23;;;13.90;99.90;;;13.82;59.20;99036.84;4950975;28;99186;-40
2023/04/01 00:25:30;;;;;;;0.10;0.10;;;13.90;99.90;;;13.92;58.31;99030.75;4937939;28;97679;-40
2023/04/01 00:27:56;;;;;;;0.23;0.10;;;14.00;99.90;;;13.93;58.27;99032.44;4931901;28;100197;-41
2023/04/01 00:30:22;;;;;;;0.00;0.00;;;14.00;99.90;;;13.92;58.22;99019.31;4931686;28;97654;-39
2023/04/01 00:32:52;;;;;;;0.80;0.30;;;14.00;99.90;;;13.88;58.64;99023.97;4931612;28;98555;-41
2023/04/01 00:35:18;;;;;;;0.67;0.10;;;13.90;99.90;;;13.88;58.11;99031.91;4930852;28;102740;-39
2023/04/01 00:37:44;;;;;;;0.20;0.20;;;13.90;99.90;;;14.00;58.21;99032.81;4936954;28;96974;-40
2023/04/01 00:40:44;;;;;;;1.30;0.13;;;14.00;99.90;;;13.99;58.49;99026.66;4931565;28;97877;-39
2023/04/01 00:43:20;;;;;;;0.73;0.23;;;14.10;99.90;;;13.99;58.42;99026.66;4932542;28;101027;-39
2023/04/01 00:45:48;;;;;;;0.63;0.17;;;14.10;99.90;;;13.98;58.01;99024.97;4936203;28;97657;-39
2023/04/01 00:48:20;;;;;;;1.30;0.10;;;14.00;99.90;;;14.00;58.40;99023.03;4927493;28;99189;-42
2023/04/01 00:50:52;;;;;;;0.23;0.13;;;14.00;99.90;;;14.00;57.94;99022.19;4941334;28;97288;-39
2023/04/01 00:53:20;;;;;;;0.30;0.17;;;14.00;99.90;;;14.04;58.02;99014.88;4918487;28;99670;-41
2023/04/01 00:56:02;;;;;;;1.30;0.20;;;14.00;99.90;;;14.03;57.88;99021.13;4930141;28;99464;-39
2023/04/01 00:58:35;;;;;;;0.13;0.10;;;14.00;99.90;;;14.02;58.17;99012.31;4930505;28;100020;-40
2023/04/01 01:01:01;;;;;;;0.60;0.20;;;14.00;99.90;;;14.10;58.22;99017.06;4913835;28;97450;-40
2023/04/01 01:03:27;;;;;;;1.10;0.20;;;14.10;99.90;;;14.09;57.76;99023.31;4919855;28;99632;-40
2023/04/01 01:06:45;;;;;;;1.03;0.27;;;14.10;99.90;;;14.02;58.35;99020.28;4936755;28;100989;-43
2023/04/01 01:09:39;;;;;;;0.40;0.13;;;14.10;99.90;;;13.95;58.61;99025.22;4941920;28;97499;-39
2023/04/01 01:15:45;;;;;;;0.23;0.20;;;14.00;99.90;;;13.91;59.32;99018.47;5756097;22;99133;-45
2023/04/01 01:18:30;;;;;;;0.33;0.10;;;13.90;99.90;;;13.84;59.70;99029.63;4871882;28;99664;-44
2023/04/01 01:21:23;;;;;;;0.20;0.20;;;13.90;99.90;;;13.86;59.24;99010.00;4879555;28;97387;-47
2023/04/01 01:24:43;;;;;;;0.73;0.10;;;13.90;99.90;;;13.92;58.97;99012.19;4853580;28;98859;-44
2023/04/01 01:27:16;;;;;;;1.70;0.73;;;13.90;99.90;;;13.99;59.27;99010.75;4753264;28;103565;-48
2023/04/01 01:30:08;;;;;;;0.00;0.00;;;14.00;99.90;;;13.86;59.40;99004.69;4757993;23;102188;-46
2023/04/01 01:33:13;;;;;;;0.20;0.03;;;13.90;99.90;;;13.98;58.95;98998.47;4677814;29;103017;-58
2023/04/01 01:35:55;;;;;;;0.10;0.10;;;13.90;99.90;;;14.08;58.48;98998.63;4415157;29;1202486;-46
2023/04/01 01:38:30;;;;;;;0.20;0.00;;;14.10;99.90;;;14.00;58.57;99001.84;4456251;30;100063;-48
2023/04/01 01:40:57;;;;;;;0.00;0.00;;;14.00;99.90;;;13.88;58.78;99002.75;4460289;30;101412;-46
2023/04/01 01:43:33;;;;;;;0.23;0.10;;;13.90;99.90;;;13.76;58.91;99000.22;4471851;30;98000;-45
2023/04/01 01:46:06;;;;;;;0.47;0.10;;;13.80;99.90;;;13.69;59.55;99002.47;4476527;30;99215;-44
2023/04/01 01:48:35;;;;;;;0.17;0.10;;;13.70;99.90;;;13.70;59.62;98998.84;4497396;30;98274;-44
2023/04/01 01:51:03;;;;;;;0.17;0.10;;;13.70;99.90;;;13.72;59.71;99001.38;4489966;30;98129;-49
2023/04/01 01:53:29;;;;;;;0.33;0.00;;;13.70;99.90;;;13.72;59.85;99002.22;4480829;30;97864;-46
2023/04/01 01:55:55;;;;;;;0.37;0.10;;;13.70;99.90;;;13.62;60.06;98995.94;4483335;30;97501;-58
2023/04/01 01:58:28;;;;;;;0.00;0.00;;;13.60;99.90;;;13.72;60.28;99004.88;4490781;30;97250;-45
2023/04/01 02:01:03;;;;;;;1.03;0.20;;;13.70;99.90;;;13.81;60.31;98996.25;4490181;30;105634;-50
2023/04/01 02:03:33;;;;;;;0.00;0.00;;;13.80;99.90;;;13.72;60.48;99010.19;4499002;30;102368;-47
2023/04/01 02:06:04;;;;;;;0.07;0.00;;;13.80;99.90;;;13.88;59.75;99008.06;4505549;30;97609;-47
2023/04/01 02:08:37;;;;;;;0.03;0.03;;;13.90;99.90;;;13.89;60.12;99019.53;4496852;30;98103;-48
2023/04/01 02:11:11;;;;;;;0.00;0.00;;;13.90;99.90;;;13.82;60.37;99011.19;4491726;30;97665;-46
2023/04/01 02:14:01;;;;;;;0.10;0.00;;;13.80;99.90;;;13.78;60.96;99001.78;4492523;30;99882;-48
2023/04/01 02:17:07;;;;;;;0.00;0.00;;;13.80;99.90;;;13.66;60.75;99002.69;4504612;30;99581;-49
2023/04/01 02:19:38;;;;;;;0.30;0.10;;;13.60;99.90;;;13.72;60.32;99007.53;4508019;30;98719;-45
2023/04/01 02:22:10;;;;;;;0.00;0.00;;;13.70;99.90;;;13.64;60.63;99012.56;4497338;30;97704;-48
2023/04/01 02:24:38;;;;;;;0.10;0.03;;;13.60;99.90;;;13.57;61.99;99013.97;4487954;30;98476;-46
2023/04/01 02:27:05;;;;;;;0.00;0.00;;;13.60;99.90;;;13.54;61.79;99006.25;4501437;30;114483;-45
2023/04/01 02:29:31;;;;;;;0.00;0.00;;;13.50;99.90;;;13.57;60.94;99003.38;4495791;30;96698;-46
2023/04/01 02:31:58;;;;;;;0.30;0.00;;;13.60;99.90;;;13.49;62.10;99000.44;4491559;30;97498;-45
2023/04/01 02:34:24;;;;;;;0.00;0.00;;;13.50;99.90;;;13.65;61.64;99001.00;4548806;30;97712;-46
2023/04/01 02:36:52;;;;;;;0.13;0.00;;;13.60;99.90;;;13.58;62.18;99005.06;4618327;29;98146;-46
2023/04/01 02:39:18;;;;;;;0.00;0.00;;;13.60;99.90;;;13.62;61.74;99006.53;4619470;30;98196;-47
2023/04/01 02:41:45;;;;;;;0.60;0.10;;;13.60;99.90;;;13.59;62.57;99001.44;4622701;30;99230;-46
2023/04/01 02:44:14;;;;;;;0.37;0.13;;;13.60;99.90;;;13.54;61.73;98999.16;4628939;30;97571;-47
2023/04/01 02:46:40;;;;;;;0.47;0.00;;;13.50;99.90;;;13.64;61.39;99009.91;4628356;29;97248;-49
2023/04/01 02:49:06;;;;;;;0.00;0.00;;;13.60;99.90;;;13.57;63.62;99008.66;4621329;30;97143;-45
2023/04/01 02:51:33;;;;;;;0.00;0.00;;;13.50;99.90;;;13.60;63.33;98997.88;4624250;30;122374;-45
2023/04/01 02:53:59;;;;;;;0.00;0.00;;;13.60;99.90;;;13.59;63.09;99001.44;4633395;30;98149;-45
2023/04/01 02:56:25;;;;;;;0.87;0.00;;;13.50;99.90;;;13.51;63.57;99006.47;4628524;30;97500;-46
2023/04/01 02:58:52;;;;;;;0.00;0.00;;;13.40;99.90;;;13.53;62.41;98997.47;4625841;30;97595;-47
2023/04/01 03:01:18;;;;;;;0.67;0.20;;;13.40;99.90;;;13.54;62.80;98998.31;4634740;30;98597;-44
2023/04/01 03:03:44;;;;;;;0.67;0.00;;;13.40;99.90;;;13.56;62.61;99001.69;4620797;29;99359;-47
2023/04/01 03:06:13;;;;;;;0.00;0.00;;;13.50;99.90;;;13.54;62.99;99008.91;4620801;30;97840;-49
2023/04/01 03:08:39;;;;;;;0.00;0.00;;;13.50;99.90;;;13.51;62.37;99003.84;4633397;30;98543;-47
2023/04/01 03:11:05;;;;;;;0.67;0.10;;;13.40;99.90;;;13.48;62.82;99009.34;4620587;30;97995;-48
2023/04/01 03:13:32;;;;;;;0.00;0.00;;;13.40;99.90;;;13.46;62.64;99011.28;4606883;30;96877;-48
2023/04/01 03:15:57;;;;;;;0.00;0.00;;;13.40;99.90;;;13.45;63.28;99004.25;4603398;30;97551;-47
2023/04/01 03:18:23;;;;;;;0.00;0.00;;;13.40;99.90;;;13.50;62.84;99008.28;4636520;30;97715;-48
2023/04/01 03:20:49;;;;;;;0.00;0.00;;;13.40;99.90;;;13.47;62.78;99012.97;4620770;30;97548;-49
2023/04/01 03:23:17;;;;;;;0.00;0.00;;;13.40;99.90;;;13.47;62.37;99018.25;4620681;30;97673;-46
2023/04/01 03:25:43;;;;;;;0.00;0.00;;;13.30;99.90;;;13.45;63.36;99015.69;4624334;30;97651;-56
2023/04/01 03:28:09;;;;;;;0.00;0.00;;;13.30;99.90;;;13.47;62.90;99018.25;4631922;30;97429;-55
2023/04/01 03:30:35;;;;;;;0.10;0.10;;;13.40;99.90;;;13.46;62.71;99020.06;4648914;30;98773;-52
2023/04/01 03:33:02;;;;;;;0.03;0.03;;;13.40;99.90;;;13.50;62.60;99013.59;4631812;30;97448;-46
2023/04/01 03:35:28;;;;;;;0.60;0.20;;;13.40;99.90;;;13.54;62.26;99030.94;4669776;29;109667;-51
2023/04/01 03:37:54;;;;;;;0.30;0.20;;;13.50;99.90;;;13.44;62.77;99021.13;4723694;29;97640;-48
2023/04/01 03:40:21;;;;;;;0.10;0.00;;;13.40;99.90;;;13.48;61.69;99018.16;4712936;29;99324;-46
2023/04/01 03:42:47;;;;;;;0.00;0.00;;;13.40;99.90;;;13.50;62.02;99023.34;4726027;29;98070;-46
2023/04/01 03:45:13;;;;;;;0.37;0.20;;;13.40;99.90;;;13.41;62.22;99024.84;4710962;29;97712;-50
2023/04/01 03:47:40;;;;;;;0.00;0.00;;;13.40;99.90;;;13.47;62.26;99023.56;4735886;29;99054;-47
2023/04/01 03:50:07;;;;;;;0.00;0.00;;;13.40;99.90;;;13.42;62.91;99030.97;4705844;29;97421;-49
2023/04/01 03:52:34;;;;;;;0.00;0.00;;;13.40;99.90;;;13.36;63.13;99027.81;4705429;29;97521;-45
2023/04/01 03:55:01;;;;;;;0.00;0.00;;;13.30;99.90;;;13.30;63.15;99035.34;4707274;29;97539;-47
2023/04/01 03:57:27;;;;;;;0.00;0.00;;;13.30;99.90;;;13.37;63.01;99037.47;4714233;29;97545;-50
2023/04/01 03:59:53;;;;;;;0.13;0.07;;;13.30;99.90;;;13.29;63.54;99037.16;4709971;29;97598;-47
2023/04/01 04:02:19;;;;;;;0.00;0.00;;;13.30;99.90;;;13.32;63.23;99031.66;4704540;29;99413;-45
2023/04/01 04:04:47;;;;;;;0.00;0.00;;;13.30;99.90;;;13.30;63.55;99028.25;4714896;29;97609;-47
2023/04/01 04:07:13;;;;;;;0.00;0.00;;;13.30;99.90;;;13.42;63.46;99036.28;4710312;29;97491;-45
2023/04/01 04:09:39;;;;;;;0.00;0.00;;;13.40;99.90;;;13.51;62.57;99030.31;4716239;29;97197;-50
2023/04/01 04:12:06;;;;;;;0.73;0.10;;;13.50;99.90;;;13.45;63.56;99033.41;4710503;29;98063;-47
2023/04/01 04:14:31;;;;;;;0.00;0.00;;;13.40;99.90;;;13.50;62.67;99039.22;4719760;29;98030;-49
2023/04/01 04:16:58;;;;;;;0.00;0.00;;;13.40;99.90;;;13.61;61.54;99037.47;4712702;29;98307;-47
2023/04/01 04:19:23;;;;;;;0.00;0.00;;;13.60;99.90;;;13.64;61.41;99037.25;4714594;29;97588;-49
2023/04/01 04:21:49;;;;;;;0.00;0.00;;;13.60;99.90;;;13.54;62.76;99045.97;4715552;29;106565;-45
2023/04/01 04:24:15;;;;;;;0.53;0.00;;;13.50;99.90;;;13.47;63.09;99036.81;4709110;29;98343;-46
2023/04/01 04:26:41;;;;;;;0.00;0.00;;;13.40;99.90;;;13.47;63.84;99045.59;4713551;29;98036;-46
2023/04/01 04:29:07;;;;;;;0.67;0.00;;;13.40;99.90;;;13.49;63.49;99048.13;4715519;29;97395;-48
2023/04/01 04:31:32;;;;;;;0.30;0.10;;;13.40;99.90;;;13.47;63.16;99039.47;4713683;29;97426;-48
2023/04/01 04:34:03;;;;;;;0.00;0.00;;;13.40;99.90;;;13.42;63.48;99041.56;4722704;29;99930;-46
2023/04/01 04:36:29;;;;;;;0.07;0.00;;;13.30;99.90;;;13.32;64.15;99036.97;4818221;28;97580;-47
2023/04/01 04:38:54;;;;;;;0.00;0.00;;;13.30;99.90;;;13.20;63.84;99037.84;4800099;28;98200;-50
2023/04/01 04:41:21;;;;;;;0.20;0.10;;;13.20;99.90;;;13.21;64.89;99028.94;4802350;28;97054;-47
2023/04/01 04:43:56;;;;;;;0.20;0.10;;;13.20;99.90;;;13.34;64.30;99036.84;4799509;28;97977;-50
2023/04/01 04:46:23;;;;;;;0.10;0.00;;;13.30;99.90;;;13.29;64.09;99045.09;4798057;29;97760;-45
2023/04/01 04:48:49;;;;;;;0.00;0.00;;;13.30;99.90;;;13.31;64.15;99045.88;4801656;28;98531;-47
2023/04/01 04:51:18;;;;;;;0.10;0.00;;;13.30;99.90;;;13.27;64.14;99041.72;4803333;28;97284;-48
2023/04/01 04:53:44;;;;;;;0.23;0.13;;;13.30;99.90;;;13.23;64.36;99042.91;4804487;28;97248;-48
2023/04/01 04:56:10;;;;;;;0.47;0.00;;;13.20;99.90;;;13.29;64.38;99042.44;4801791;28;97189;-49
2023/04/01 04:58:38;;;;;;;0.00;0.00;;;13.20;99.90;;;13.24;64.73;99049.06;4805438;28;97839;-45
2023/04/01 05:01:13;;;;;;;0.00;0.00;;;13.20;99.90;;;13.16;65.52;99046.91;4799595;28;97935;-53
2023/04/01 05:03:39;;;;;;;0.20;0.20;;;13.20;99.90;;;13.13;65.41;99047.13;4800922;28;98098;-51
2023/04/01 05:06:07;;;;;;;0.50;0.30;;;13.10;99.90;;;13.21;64.90;99052.75;4798466;28;97832;-48
2023/04/01 05:08:33;;;;;;;0.20;0.17;;;13.20;99.90;;;13.26;64.56;99053.28;4796174;28;98379;-50
2023/04/01 05:11:01;;;;;;;0.20;0.10;;;13.30;99.90;;;13.22;65.02;99051.81;4811723;28;97304;-47
2023/04/01 05:13:27;;;;;;;0.00;0.00;;;13.20;99.90;;;13.22;65.18;99057.09;4801960;28;97198;-50
2023/04/01 05:15:53;;;;;;;0.00;0.00;;;13.20;99.90;;;13.20;65.51;99052.88;4801034;28;97651;-52
2023/04/01 05:18:18;;;;;;;0.10;0.10;;;13.20;99.90;;;13.16;65.61;99054.84;4797178;29;111734;-46
2023/04/01 05:20:53;;;;;;;0.07;0.00;;;13.20;99.90;;;13.14;66.34;99064.69;4810480;28;99672;-50
2023/04/01 05:23:21;;;;;;;0.00;0.00;;;13.10;99.90;;;13.15;66.05;99060.25;4804383;28;97255;-49
2023/04/01 05:25:52;;;;;;;0.00;0.00;;;13.10;99.90;;;13.10;65.18;99057.94;4804049;28;97545;-50
2023/04/01 05:28:19;;;;;;;0.00;0.00;;;13.00;99.90;;;13.17;66.02;99059.22;4802362;28;97653;-50
2023/04/01 05:30:45;;;;;;;0.07;0.07;;;13.20;99.90;;;13.24;65.75;99064.94;4828431;28;98343;-52
2023/04/01 05:33:12;;;;;;;0.00;0.00;;;13.20;99.90;;;13.15;65.36;99071.69;4800609;28;104833;-49
2023/04/01 05:35:39;;;;;;;0.10;0.10;;;13.10;99.90;;;13.10;66.29;99073.81;4840252;28;97818;-52
2023/04/01 05:38:05;;;;;;;0.60;0.30;;;13.10;99.90;;;13.11;66.77;99075.50;4851517;28;100053;-50
2023/04/01 05:40:32;;;;;;;0.20;0.10;;;13.10;99.90;;;13.16;65.35;99068.09;4855009;28;97562;-51
2023/04/01 05:42:59;;;;;;;0.27;0.00;;;13.10;99.90;;;13.24;65.79;99081.66;4861290;28;97747;-52
2023/04/01 05:45:25;;;;;;;0.10;0.10;;;13.20;99.90;;;13.22;66.33;99077.44;4856052;28;97631;-51
2023/04/01 05:47:51;;;;;;;0.00;0.00;;;13.20;99.90;;;13.18;66.67;99078.59;4857097;28;97714;-47
2023/04/01 05:50:17;;;;;;;0.00;0.00;;;13.10;99.90;;;13.29;64.92;99074.22;4858858;28;97638;-49
2023/04/01 05:52:43;;;;;;;0.27;0.10;;;13.20;99.90;;;13.31;66.22;99080.28;4839987;28;97345;-47
2023/04/01 05:55:09;;;;;;;1.03;0.20;;;13.20;99.90;;;13.42;64.22;99076.84;4851983;28;97140;-48
2023/04/01 05:57:35;;;;;;;0.23;0.03;;;13.40;99.90;;;13.32;66.29;99084.63;4855768;28;97959;-50
2023/04/01 06:00:00;;;;;;;4.80;0.20;;;13.30;99.90;;;13.30;65.97;99086.50;4845098;28;97335;-52
2023/04/01 06:02:27;;;;;;;0.47;0.20;;;13.30;99.90;;;13.35;65.82;99095.00;4857877;28;97328;-49
2023/04/01 06:05:26;;;;;;;0.13;0.07;;;13.40;99.90;;;13.33;66.50;99091.59;4852089;28;97343;-53
2023/04/01 06:08:01;;;;;;;0.30;0.10;;;13.30;99.90;;;13.21;66.62;99086.34;4834674;28;100308;-49
2023/04/01 06:10:53;;;;;;;0.03;0.03;;;13.20;99.90;;;13.20;65.45;99096.09;4840402;28;101252;-53
2023/04/01 06:13:18;;;;;;;0.37;0.20;;;13.10;99.90;;;13.33;64.38;99091.59;4856631;28;98116;-49
2023/04/01 06:16:07;;;;;;;0.00;0.00;;;13.30;99.90;;;13.36;64.89;99101.97;4855947;28;97367;-48
2023/04/01 06:19:03;;;;;;;0.00;0.00;;;13.40;99.90;;;13.43;64.30;99101.53;4853006;28;101619;-47
2023/04/01 06:21:53;;;;;;;0.60;0.20;;;13.50;99.90;;;13.53;63.21;99105.22;4859616;28;102019;-47
2023/04/01 06:24:37;;;;;;;0.40;0.03;;;13.50;99.90;;;13.56;64.50;99102.34;4850199;28;97421;-52
2023/04/01 06:27:28;;;;;;;0.13;0.10;;;13.50;99.90;;;13.55;64.64;99108.59;4852132;28;98347;-51
2023/04/01 06:30:37;;;;;;;1.33;0.23;;;13.50;99.90;;;13.55;64.14;99108.59;4847782;28;97931;-49
2023/04/01 06:33:33;;;;;;;0.30;0.10;;;13.60;99.90;;;13.50;64.93;99105.44;4854283;28;102640;-48
2023/04/01 06:36:19;;;;;;;0.00;0.00;;;13.50;99.90;;;13.55;62.69;99105.94;4849883;28;97345;-47
2023/04/01 06:39:00;;;;;;;0.20;0.10;;;13.50;99.90;;;13.54;64.26;99105.09;4867517;28;97278;-50
2023/04/01 06:41:52;;;;;;;0.10;0.10;;;13.50;99.90;;;13.47;65.68;99113.63;4868799;28;104104;-51
2023/04/01 06:44:50;;;;;;;0.10;0.10;;;13.40;99.90;;;13.38;65.90;99109.81;4864331;28;97186;-50
2023/04/01 06:47:31;;;;;;;0.00;0.00;;;13.30;99.90;;;13.33;66.22;99117.25;4863481;28;97304;-51
2023/04/01 06:50:26;;;;;;;0.33;0.10;;;13.30;99.90;;;13.44;64.33;99108.50;4876764;28;102699;-50
2023/04/01 06:53:23;;;;;;;0.10;0.10;;;13.40;99.90;;;13.50;65.18;99113.38;4883157;28;102213;-50
2023/04/01 06:56:04;;;;;;;0.63;0.10;;;13.40;99.90;;;13.46;65.44;99119.88;4880956;28;101408;-49
2023/04/01 06:58:44;;;;;;;0.10;0.10;;;13.40;99.90;;;13.45;66.21;99118.16;4884828;28;97610;-49
2023/04/01 07:01:18;;;;;;;0.20;0.10;;;13.40;99.90;;;13.54;63.87;99120.16;4887638;28;97130;-48
2023/04/01 07:03:56;;;;;;;0.10;0.10;;;13.50;99.90;;;13.60;63.35;99119.72;4891496;28;98793;-51
2023/04/01 07:06:31;;;;;;;0.20;0.20;;;13.60;99.90;;;13.53;64.83;99118.47;4884360;28;102382;-49
2023/04/01 07:09:02;;;;;;;0.00;0.00;;;13.50;99.90;;;13.54;65.32;99125.44;4885459;28;97432;-51
2023/04/01 07:11:35;;;;;;;0.20;0.20;;;13.60;99.90;;;13.47;65.48;99129.50;4870237;28;97357;-53
2023/04/01 07:14:26;;;;;;;0.10;0.10;;;13.50;99.90;;;13.57;64.54;99135.81;4884844;28;97511;-52
2023/04/01 07:17:09;;;;;;;0.13;0.10;;;13.50;99.90;;;13.57;64.78;99130.50;4889807;28;97677;-52
2023/04/01 07:19:57;;;;;;;0.77;0.10;;;13.60;99.90;;;13.63;65.22;99140.69;4887665;28;97864;-50
2023/04/01 07:22:47;;;;;;;0.33;0.13;;;13.60;99.90;;;13.65;64.50;99138.78;4871988;28;97635;-48
2023/04/01 07:25:17;;;;;;;0.40;0.30;;;13.70;99.90;;;13.59;64.73;99139.19;4865191;28;97623;-52
2023/04/01 07:27:46;;;;;;;0.20;0.10;;;13.70;99.90;;;13.62;65.50;99144.28;4890696;28;97329;-49
2023/04/01 07:30:19;;;;;;;0.23;0.20;;;13.60;99.90;;;13.59;63.80;99144.50;5045054;23;101809;-40
2023/04/01 07:33:29;;;;;;;0.20;0.20;;;13.50;99.90;;;13.57;65.66;99151.72;4913236;28;97397;-40
2023/04/01 07:36:21;;;;;;;0.30;0.17;;;13.60;99.90;;;13.57;65.11;99152.56;4839208;28;103033;-40
2023/04/01 07:39:37;;;;;;;0.20;0.20;;;13.60;99.90;;;13.56;65.91;99150.00;4883127;28;102168;-40
2023/04/01 07:42:36;;;;;;;0.10;0.10;;;13.60;99.90;;;13.65;64.59;99159.97;4873454;28;97444;-40
2023/04/01 07:45:29;;;;;;;0.33;0.17;;;13.70;99.90;;;13.60;65.22;99164.75;4882750;28;97343;-41
2023/04/01 07:48:00;;;;;;;0.27;0.17;;;13.80;99.90;;;13.58;64.77;99164.00;4884105;28;98117;-41
2023/04/01 07:50:28;;;;;;;0.30;0.20;;;13.70;99.90;;;13.65;64.66;99160.81;4875157;28;101366;-40
2023/04/01 07:53:08;;;;;;;0.00;0.00;;;13.80;99.90;;;13.76;63.86;99167.16;4884612;28;97031;-40
2023/04/01 07:56:06;;;;;;;0.10;0.10;;;13.90;99.90;;;13.77;63.49;99167.03;4884405;28;97640;-40
2023/04/01 07:59:23;;;;;;;0.00;0.00;;;14.00;99.90;;;13.87;62.73;99172.50;4882683;28;103828;-39
2023/04/01 08:02:06;;;;;;;0.23;0.20;;;14.20;99.90;;;13.98;61.83;99184.03;4883652;28;100725;-40
2023/04/01 08:04:56;;;;;;;0.20;0.20;;;14.20;99.90;;;14.00;63.15;99181.25;4882587;28;97948;-41
2023/04/01 08:08:16;;;;;;;0.20;0.20;;;14.20;99.90;;;13.83;64.95;99184.28;4883097;28;97222;-40
2023/04/01 08:11:04;;;;;;;1.07;0.30;;;14.20;99.90;;;13.81;63.37;99188.84;4875824;28;103317;-40
2023/04/01 08:13:47;;;;;;;0.20;0.20;;;14.10;99.90;;;13.91;63.45;99185.44;4889742;28;99861;-40
2023/04/01 08:16:40;;;;;;;0.93;0.40;;;14.20;99.90;;;13.80;64.78;99190.66;4879356;28;97587;-41
2023/04/01 08:19:40;;;;;;;0.57;0.10;;;14.10;99.90;;;13.72;65.86;99195.66;4863190;28;97614;-40
2023/04/01 08:22:21;;;;;;;0.17;0.10;;;14.00;99.90;;;13.68;65.41;99204.78;4883160;28;97029;-40
2023/04/01 08:24:49;;;;;;;0.20;0.20;;;13.90;99.90;;;13.66;63.80;99204.06;4881215;28;97308;-40
2023/04/01 08:27:26;;;;;;;1.50;0.30;;;13.90;99.90;;;13.55;64.31;99206.59;4893152;28;97253;-40
2023/04/01 08:30:26;;;;;;;1.03;0.20;;;14.00;99.90;;;13.70;63.90;99210.81;4886548;28;98556;-40
2023/04/01 08:33:00;;;;;;;0.53;0.10;;;14.00;99.90;;;13.61;65.58;99212.34;4880098;28;102369;-41
2023/04/01 08:35:55;;;;;;;0.50;0.50;;;14.00;99.90;;;13.61;65.15;99217.63;4869647;28;102605;-40
2023/04/01 08:38:36;;;;;;;0.00;0.00;;;14.00;99.90;;;13.61;65.06;99216.78;4883513;28;97582;-40
2023/04/01 08:41:41;;;;;;;0.30;0.30;;;13.90;99.90;;;13.72;63.10;99219.50;4879318;28;97082;-40
2023/04/01 08:44:44;;;;;;;0.10;0.10;;;14.00;99.90;;;13.68;65.08;99218.03;4850221;28;98104;-40
2023/04/01 08:47:56;;;;;;;0.10;0.10;;;14.10;99.90;;;13.84;63.41;99226.56;4860747;28;97773;-40
2023/04/01 08:51:19;;;;;;;0.20;0.20;;;14.10;99.90;;;13.92;62.04;99216.28;4838969;28;97381;-41
2023/04/01 08:54:02;;;;;;;0.30;0.30;;;14.30;99.90;;;13.81;64.73;99234.75;4869945;28;97530;-41
2023/04/01 08:56:40;;;;;;;0.20;0.20;;;14.20;99.90;;;13.80;62.81;99222.47;4852994;28;101190;-41
2023/04/01 08:59:11;;;;;;;0.10;0.10;;;14.10;99.90;;;13.79;64.58;99241.97;4850072;28;97348;-40
2023/04/01 09:02:17;;;;;;;0.00;0.00;;;14.20;99.90;;;13.54;65.61;99226.09;4855860;28;98674;-40
2023/04/01 09:05:22;;;;;;;0.47;0.30;;;14.00;99.90;;;13.65;64.82;99244.75;4850965;28;98700;-41
2023/04/01 09:08:29;;;;;;;0.20;0.10;;;14.00;99.90;;;13.69;65.17;99238.28;4871689;28;101697;-41
2023/04/01 09:11:08;;;;;;;0.10;0.10;;;14.10;99.90;;;13.72;64.68;99248.63;4881516;28;104309;-41
2023/04/01 09:14:39;;;;;;;0.27;0.20;;;14.10;99.90;;;13.51;64.19;99250.16;4870920;28;97457;-40
2023/04/01 09:18:06;;;;;;;0.30;0.30;;;13.90;99.90;;;13.57;65.22;99255.03;4835578;28;98832;-40
2023/04/01 09:21:02;;;;;;;0.17;0.10;;;14.00;99.90;;;13.49;65.38;99268.81;4834252;28;101274;-41
2023/04/01 09:23:57;;;;;;;0.30;0.20;;;13.90;99.90;;;13.62;63.59;99260.88;4844037;28;101758;-42
2023/04/01 09:27:10;;;;;;;0.10;0.00;;;14.00;99.90;;;13.33;66.28;99276.97;4843160;28;97374;-41
2023/04/01 09:29:42;;;;;;;0.20;0.20;;;13.80;99.90;;;13.37;65.39;99267.84;4856342;28;97551;-41
2023/04/01 09:32:42;;;;;;;0.20;0.20;;;13.80;99.90;;;13.25;66.81;99273.16;4862231;28;98094;-40
2023/04/01 09:35:40;;;;;;;0.10;0.10;;;13.70;99.90;;;13.19;67.80;99279.72;4848894;28;98792;-40
2023/04/01 09:38:44;;;;;;;0.00;0.00;;;13.70;99.90;;;13.05;68.71;99283.25;4850004;28;97332;-40
2023/04/01 09:41:31;;;;;;;0.40;0.13;;;13.50;99.90;;;13.27;66.90;99293.25;4869138;28;97054;-40
2023/04/01 09:44:25;;;;;;;0.20;0.10;;;13.70;99.90;;;13.28;67.38;99288.81;4869641;28;99249;-48
2023/04/01 09:47:09;;;;;;;0.40;0.23;;;13.70;99.90;;;13.35;67.95;99298.91;4863616;28;105531;-40
2023/04/01 09:50:13;;;;;;;0.20;0.13;;;13.70;99.90;;;13.30;67.43;99295.69;4867860;28;97435;-41
2023/04/01 09:52:47;;;;;;;0.53;0.40;;;13.70;99.90;;;13.43;66.87;99300.16;4882598;28;97364;-40
2023/04/01 09:55:59;;;;;;;0.50;0.40;;;13.80;99.90;;;13.32;67.18;99307.06;4861978;28;98884;-40
2023/04/01 09:59:20;;;;;;;0.30;0.27;;;13.80;99.90;;;13.39;66.27;99308.31;4866955;28;101402;-40
2023/04/01 10:02:52;;;;;;;1.60;0.40;;;13.80;99.90;;;13.25;67.25;99311.06;4860630;28;97461;-40
2023/04/01 10:06:31;;;;;;;0.37;0.33;;;13.70;99.90;;;13.18;67.94;99319.50;4867765;28;96750;-40
2023/04/01 10:09:37;;;;;;;1.27;0.40;;;13.60;99.90;;;13.40;65.60;99314.47;4782850;29;102910;-43
2023/04/01 10:12:19;;;;;;;0.47;0.33;;;13.70;99.90;;;13.54;64.36;99318.81;4876205;28;98720;-41
2023/04/01 10:15:41;;;;;;;0.97;0.20;;;13.90;99.90;;;13.47;65.76;99325.50;4872705;28;97459;-42
2023/04/01 10:18:38;;;;;;;0.30;0.30;;;13.90;99.90;;;13.36;67.41;99329.72;4864069;28;97337;-41
2023/04/01 10:21:17;;;;;;;0.80;0.50;;;13.80;99.90;;;13.45;66.90;99337.97;4868467;28;97602;-41
2023/04/01 10:24:11;;;;;;;1.70;0.30;;;13.80;99.90;;;13.74;63.85;99334.16;4872436;28;98051;-40
2023/04/01 10:26:49;;;;;;;0.10;0.10;;;14.00;99.90;;;13.84;63.46;99340.53;4869800;28;99357;-40
2023/04/01 10:29:36;;;;;;;0.43;0.30;;;14.10;99.90;;;13.74;65.78;99341.28;4869149;28;98067;-41
2023/04/01 10:32:11;;;;;;;0.70;0.40;;;14.10;99.90;;;13.72;64.76;99332.59;4866629;28;98457;-40
2023/04/01 10:35:20;;;;;;;0.30;0.30;;;14.10;99.90;;;13.75;65.86;99341.19;4871439;28;98659;-42
2023/04/01 10:38:21;;;;;;;1.00;0.20;;;14.10;99.90;;;13.74;64.44;99344.78;4866760;28;98195;-42
2023/04/01 10:41:36;;;;;;;0.30;0.20;;;14.00;99.90;;;13.90;64.87;99350.72;4863382;28;98686;-42
2023/04/01 10:44:43;;;;;;;2.47;0.30;;;14.20;99.90;;;13.75;65.45;99343.00;4845562;28;100741;-40
2023/04/01 10:47:26;;;;;;;0.70;0.40;;;14.20;99.90;;;13.64;66.23;99354.34;4860361;28;98861;-40
2023/04/01 10:50:36;;;;;;;0.97;0.30;;;14.00;99.90;;;13.67;65.04;99344.38;4850637;28;98137;-40
2023/04/01 10:53:57;;;;;;;0.30;0.20;;;14.00;99.90;;;13.78;63.60;99340.13;4876054;28;97387;-42
2023/04/01 10:57:14;;;;;;;0.27;0.20;;;14.10;99.90;;;13.75;65.42;99356.25;4883524;28;100577;-40
2023/04/01 10:59:50;;;;;;;0.13;0.13;;;13.90;99.90;;;13.85;63.65;99347.53;4876698;28;100785;-42
2023/04/01 11:02:43;;;;;;;0.80;0.43;;;14.10;99.90;;;13.78;65.46;99351.56;4883851;28;96899;-38
2023/04/01 11:05:31;;;;;;;0.83;0.10;;;14.10;99.90;;;13.81;65.02;99356.66;4877880;28;97077;-41
2023/04/01 11:08:53;;;;;;;0.40;0.40;;;14.10;99.90;;;13.79;66.30;99363.88;4880258;28;100212;-41
2023/04/01 11:11:43;;;;;;;1.67;0.40;;;14.20;99.90;;;13.84;63.62;99364.38;4872111;28;102602;-42
2023/04/01 11:14:40;;;;;;;1.77;0.50;;;14.20;99.90;;;13.93;65.19;99363.75;4880272;28;97312;-41
2023/04/01 11:17:26;;;;;;;0.77;0.40;;;14.30;99.90;;;13.89;65.55;99369.41;4880646;28;97010;-40